createdAt,value
2018-11-23T00:02:19.726Z,49.77
2018-11-23T00:05:08.547Z,49.47
2018-11-23T00:07:58.303Z,51.20
2018-11-23T00:10:47.256Z,46.93
2018-11-23T00:13:36.092Z,52.80
2018-11-23T00:16:25.388Z,48.43
2018-11-23T00:18:55.390Z,44.90
2018-11-23T00:21:25.824Z,58.47
2018-11-23T00:27:09.432Z,53.17
2018-11-23T00:29:58.333Z,50.77
2018-11-23T00:32:47.660Z,53.10
2018-11-23T00:35:55.353Z,57.77
2018-11-23T00:38:25.737Z,52.17
2018-11-23T00:41:14.667Z,55.13
2018-11-23T00:44:05.965Z,54.00
2018-11-23T00:46:54.417Z,56.87
2018-11-23T00:49:42.909Z,55.00
2018-11-23T00:52:33.061Z,55.30
2018-11-23T00:55:22.766Z,66.10
2018-11-23T00:58:11.965Z,52.93
2018-11-23T01:01:00.978Z,56.07
2018-11-23T01:03:50.314Z,56.57
2018-11-23T01:06:39.178Z,61.73
2018-11-23T01:09:28.560Z,50.83
2018-11-23T01:12:17.927Z,58.23
2018-11-23T01:15:06.916Z,62.30
2018-11-23T01:17:56.028Z,52.10
2018-11-23T01:20:45.856Z,55.50
2018-11-23T01:23:35.054Z,52.23
2018-11-23T01:26:25.944Z,47.10
2018-11-23T01:35:19.287Z,46.70
2018-11-23T01:38:09.044Z,51.67
2018-11-23T01:40:57.958Z,53.63
2018-11-23T01:43:48.225Z,56.20
2018-11-23T01:46:37.123Z,46.73
2018-11-23T01:49:27.425Z,54.67
2018-11-23T01:52:16.616Z,49.93
2018-11-23T01:55:05.752Z,49.27
2018-11-23T01:57:35.710Z,57.77
2018-11-23T02:00:06.138Z,50.80
2018-11-23T02:05:47.490Z,53.63
2018-11-23T02:08:36.438Z,45.90
2018-11-23T02:11:25.768Z,58.47
2018-11-23T02:14:14.666Z,49.27
2018-11-23T02:17:04.785Z,55.80
2018-11-23T02:19:55.654Z,54.67
2018-11-23T02:22:44.426Z,45.27
2018-11-23T02:25:34.935Z,54.73
2018-11-23T02:28:26.216Z,46.57
2018-11-23T02:30:56.989Z,48.93
2018-11-23T02:33:45.533Z,59.07
2018-11-23T02:36:33.786Z,50.40
2018-11-23T02:39:23.002Z,51.07
2018-11-23T02:42:11.981Z,51.50
2018-11-23T02:45:01.045Z,50.80
2018-11-23T02:47:50.181Z,51.77
2018-11-23T02:50:40.348Z,54.83
2018-11-23T02:53:29.310Z,55.90
2018-11-23T02:56:19.156Z,54.77
2018-11-23T02:59:11.350Z,51.87
2018-11-23T03:02:00.317Z,49.50
2018-11-23T03:04:50.121Z,52.20
2018-11-23T03:07:39.096Z,55.53
2018-11-23T03:10:30.279Z,56.30
2018-11-23T03:13:19.218Z,51.43
2018-11-23T03:16:09.609Z,53.50
2018-11-23T03:18:58.508Z,50.83
2018-11-23T03:21:47.405Z,57.67
2018-11-23T03:24:36.302Z,53.67
2018-11-23T03:27:25.439Z,53.17
2018-11-23T03:30:33.262Z,50.40
2018-11-23T03:33:23.718Z,51.13
2018-11-23T03:36:13.073Z,48.70
2018-11-23T03:39:01.901Z,53.33
2018-11-23T03:41:52.271Z,47.70
2018-11-23T03:44:41.219Z,55.70
2018-11-23T03:47:30.168Z,51.73
2018-11-23T03:50:19.293Z,53.43
2018-11-23T03:53:09.070Z,49.40
2018-11-23T03:55:58.021Z,52.77
2018-11-23T03:58:47.266Z,54.30
2018-11-23T04:01:36.099Z,49.10
2018-11-23T04:04:25.126Z,42.77
2018-11-23T04:10:23.356Z,46.87
2018-11-23T04:13:13.409Z,51.50
2018-11-23T04:16:02.093Z,53.00
2018-11-23T04:18:50.504Z,52.23
2018-11-23T04:21:43.110Z,55.17
2018-11-23T04:24:13.549Z,64.30
2018-11-23T04:27:03.906Z,62.17
2018-11-23T04:29:52.792Z,51.18
2018-11-23T04:35:38.131Z,58.07
2018-11-23T04:38:27.883Z,53.00
2018-11-23T04:44:14.004Z,65.83
2018-11-23T04:47:03.390Z,57.80
2018-11-23T04:49:53.093Z,57.00
2018-11-23T04:52:41.927Z,53.90
2018-11-23T04:55:31.808Z,50.30
2018-11-23T04:58:21.093Z,58.70
2018-11-23T05:01:10.339Z,62.50
2018-11-23T05:04:00.201Z,65.30
2018-11-23T05:06:50.045Z,52.37
2018-11-23T05:09:39.723Z,56.70
2018-11-23T05:12:47.690Z,54.13
2018-11-23T05:15:36.542Z,56.60
2018-11-23T05:18:26.297Z,55.60
2018-11-23T05:21:15.675Z,56.60
2018-11-23T05:23:45.949Z,56.27
2018-11-23T05:26:34.903Z,54.17
2018-11-23T05:29:23.764Z,57.63
2018-11-23T05:32:13.525Z,52.37
2018-11-23T05:37:38.728Z,56.70
2018-11-23T05:40:27.521Z,61.07
2018-11-23T05:43:16.392Z,52.50
2018-11-23T05:46:05.355Z,47.90
2018-11-23T05:48:38.218Z,59.47
2018-11-23T05:51:08.224Z,62.20
2018-11-23T05:53:56.285Z,56.93
2018-11-23T05:56:45.426Z,64.07
2018-11-23T05:59:35.663Z,50.93
2018-11-23T06:02:05.772Z,57.33
2018-11-23T06:04:55.082Z,54.63
2018-11-23T06:07:45.031Z,56.37
2018-11-23T06:10:33.812Z,54.10
2018-11-23T06:13:22.667Z,49.80
2018-11-23T06:16:12.054Z,57.60
2018-11-23T06:19:01.049Z,55.83
2018-11-23T06:21:50.016Z,51.97
2018-11-23T06:24:38.873Z,57.60
2018-11-23T06:27:27.876Z,52.57
2018-11-23T06:30:16.870Z,67.27
2018-11-23T06:33:25.051Z,60.40
2018-11-23T06:36:14.237Z,57.00
2018-11-23T06:39:03.567Z,57.77
2018-11-23T06:41:52.376Z,54.47
2018-11-23T06:44:41.212Z,54.47
2018-11-23T06:47:32.635Z,52.93
2018-11-23T06:50:24.187Z,55.53
2018-11-23T06:53:13.053Z,56.47
2018-11-23T06:56:02.862Z,61.23
2018-11-23T06:58:52.330Z,50.70
2018-11-23T07:01:41.127Z,53.37
2018-11-23T07:04:30.014Z,50.23
2018-11-23T07:07:19.497Z,59.80
2018-11-23T07:10:08.855Z,54.20
2018-11-23T07:12:58.133Z,54.00
2018-11-23T07:15:46.956Z,47.17
2018-11-23T07:18:36.779Z,52.00
2018-11-23T07:21:25.713Z,52.90
2018-11-23T07:24:14.637Z,51.07
2018-11-23T07:27:03.496Z,57.67
2018-11-23T07:29:52.391Z,52.53
2018-11-23T07:32:42.294Z,51.00
2018-11-23T07:35:31.226Z,51.47
2018-11-23T07:38:20.116Z,48.77
2018-11-23T07:41:28.216Z,58.63
2018-11-23T07:44:17.053Z,60.03
2018-11-23T07:47:05.808Z,43.03
2018-11-23T07:49:36.898Z,54.07
2018-11-23T07:52:25.726Z,44.60
2018-11-23T07:55:14.809Z,47.90
2018-11-23T07:57:56.374Z,50.40
2018-11-23T08:00:37.650Z,47.43
2018-11-23T08:03:18.450Z,51.47
2018-11-23T08:05:59.912Z,56.30
2018-11-23T08:08:40.819Z,49.40
2018-11-23T08:11:22.940Z,49.67
2018-11-23T08:14:04.986Z,43.63
2018-11-23T08:16:47.126Z,47.73
2018-11-23T08:19:28.774Z,44.80
2018-11-23T08:22:10.303Z,43.50
2018-11-23T08:24:51.686Z,44.97
2018-11-23T08:27:32.658Z,47.77
2018-11-23T08:30:14.812Z,49.13
2018-11-23T08:32:56.557Z,39.17
2018-11-23T08:38:22.531Z,43.50
2018-11-23T08:40:53.439Z,43.23
2018-11-23T08:43:42.199Z,39.00
2018-11-23T08:46:30.956Z,37.27
2018-11-23T08:49:20.215Z,40.20
2018-11-23T08:52:09.051Z,37.20
2018-11-23T08:54:58.352Z,38.07
2018-11-23T08:57:47.544Z,38.80
2018-11-23T09:00:36.345Z,36.83
2018-11-23T09:03:44.019Z,37.57
2018-11-23T09:06:32.343Z,40.83
2018-11-23T09:09:21.697Z,40.57
2018-11-23T09:12:10.837Z,41.30
2018-11-23T09:15:00.060Z,40.33
2018-11-23T09:17:48.171Z,43.50
2018-11-23T09:20:36.123Z,42.93
2018-11-23T09:23:24.263Z,39.23
2018-11-23T09:26:12.234Z,39.33
2018-11-23T09:29:00.230Z,37.87
2018-11-23T09:36:32.426Z,36.33
2018-11-23T09:44:04.815Z,35.33
2018-11-23T09:54:18.520Z,38.77
2018-11-23T10:07:01.784Z,39.00
2018-11-23T10:14:36.470Z,36.40
2018-11-23T10:25:06.307Z,32.70
2018-11-23T10:30:30.889Z,36.13
2018-11-23T10:36:10.533Z,38.40
2018-11-23T10:42:15.370Z,35.77
2018-11-23T10:44:45.280Z,33.60
2018-11-23T10:47:34.073Z,35.90
2018-11-23T10:50:24.104Z,37.23
2018-11-23T10:53:14.791Z,35.73
2018-11-23T10:56:03.537Z,36.83
2018-11-23T10:58:53.038Z,37.37
2018-11-23T11:02:00.467Z,31.40
2018-11-23T11:05:07.895Z,41.00
2018-11-23T11:07:58.187Z,38.47
2018-11-23T11:10:46.988Z,33.50
2018-11-23T11:13:17.807Z,32.70
2018-11-23T11:16:06.714Z,34.67
2018-11-23T11:18:55.463Z,35.47
2018-11-23T11:21:44.357Z,30.23
2018-11-23T11:24:33.474Z,30.63
2018-11-23T11:27:22.010Z,31.97
2018-11-23T11:30:29.831Z,31.07
2018-11-23T11:33:37.704Z,32.07
2018-11-23T11:36:26.065Z,25.97
2018-11-23T11:39:14.432Z,28.93
2018-11-23T11:42:02.489Z,27.07
2018-11-23T11:44:50.580Z,25.37
2018-11-23T11:47:38.538Z,27.50
2018-11-23T11:50:26.632Z,30.47
2018-11-23T11:53:14.657Z,32.13
2018-11-23T11:56:02.625Z,30.30
2018-11-23T11:58:50.765Z,33.30
2018-11-23T12:01:38.773Z,30.20
2018-11-23T12:04:26.756Z,31.87
2018-11-23T12:07:14.753Z,29.53
2018-11-23T12:10:03.117Z,28.70
2018-11-23T12:12:51.267Z,33.57
2018-11-23T12:15:39.222Z,29.53
2018-11-23T12:18:27.267Z,28.83
2018-11-23T12:21:15.245Z,31.40
2018-11-23T12:24:03.252Z,33.53
2018-11-23T12:26:51.242Z,27.13
2018-11-23T12:29:39.626Z,27.57
2018-11-23T12:32:27.684Z,27.43
2018-11-23T12:35:16.752Z,31.03
2018-11-23T12:38:04.678Z,26.00
2018-11-23T12:40:52.688Z,22.70
2018-11-23T12:43:40.882Z,26.20
2018-11-23T12:46:29.307Z,23.60
2018-11-23T12:49:17.299Z,28.30
2018-11-23T12:52:05.504Z,24.37
2018-11-23T12:54:53.485Z,23.33
2018-11-23T12:57:41.957Z,24.37
2018-11-23T13:00:31.398Z,29.73
2018-11-23T13:03:19.469Z,23.83
2018-11-23T13:06:07.387Z,25.17
2018-11-23T13:08:55.489Z,25.27
2018-11-23T13:11:43.620Z,21.87
2018-11-23T13:14:31.681Z,21.30
2018-11-23T13:17:19.616Z,25.33
2018-11-23T13:20:07.657Z,22.87
2018-11-23T13:22:55.788Z,23.53
2018-11-23T13:25:43.796Z,22.10
2018-11-23T13:28:32.192Z,21.10
2018-11-23T13:31:20.629Z,24.37
2018-11-23T13:34:09.128Z,23.07
2018-11-23T13:36:57.157Z,24.30
2018-11-23T13:39:45.275Z,20.20
2018-11-23T13:42:33.751Z,20.53
2018-11-23T13:45:40.511Z,18.60
2018-11-23T13:48:28.605Z,18.70
2018-11-23T13:51:16.590Z,19.30
2018-11-23T13:54:04.627Z,18.70
2018-11-23T13:56:52.663Z,19.63
2018-11-23T13:59:40.707Z,21.70
2018-11-23T14:02:28.644Z,20.60
2018-11-23T14:05:17.944Z,19.80
2018-11-23T14:08:05.962Z,16.70
2018-11-23T14:10:53.986Z,18.17
2018-11-23T14:13:41.962Z,14.20
2018-11-23T14:16:29.999Z,15.40
2018-11-23T14:21:55.364Z,14.40
2018-11-23T14:24:43.382Z,17.67
2018-11-23T14:27:31.385Z,13.80
2018-11-23T14:30:38.174Z,14.63
2018-11-23T14:33:26.496Z,13.87
2018-11-23T14:36:14.472Z,17.03
2018-11-23T14:39:02.499Z,12.73
2018-11-23T14:41:50.550Z,11.93
2018-11-23T14:44:38.691Z,12.57
2018-11-23T14:47:26.711Z,11.80
2018-11-23T14:50:15.778Z,12.87
2018-11-23T14:53:03.920Z,13.13
2018-11-23T14:55:52.311Z,12.50
2018-11-23T14:58:40.737Z,17.80
2018-11-23T15:01:28.843Z,16.90
2018-11-23T15:04:16.842Z,13.73
2018-11-23T15:07:04.943Z,13.40
2018-11-23T15:09:52.865Z,13.60
2018-11-23T15:12:41.252Z,16.43
2018-11-23T15:15:12.576Z,11.67
2018-11-23T15:18:01.147Z,15.23
2018-11-23T15:20:49.402Z,12.67
2018-11-23T15:23:38.449Z,14.30
2018-11-23T15:26:26.731Z,15.90
2018-11-23T15:29:15.233Z,13.60
2018-11-23T15:32:03.322Z,14.90
2018-11-23T15:34:51.480Z,14.70
2018-11-23T15:37:39.603Z,15.10
2018-11-23T15:40:28.956Z,14.57
2018-11-23T15:43:18.513Z,14.20
2018-11-23T15:46:06.517Z,14.40
2018-11-23T15:48:54.566Z,15.33
2018-11-23T15:51:42.658Z,13.80
2018-11-23T15:54:30.770Z,12.20
2018-11-23T15:57:18.821Z,16.13
2018-11-23T16:00:06.851Z,14.10
2018-11-23T16:02:54.920Z,14.70
2018-11-23T16:05:43.255Z,13.57
2018-11-23T16:08:31.303Z,14.53
2018-11-23T16:11:19.468Z,13.47
2018-11-23T16:14:07.545Z,12.53
2018-11-23T16:16:55.670Z,15.10
2018-11-23T16:19:43.753Z,15.07
2018-11-23T16:22:32.200Z,14.10
2018-11-23T16:25:20.416Z,13.43
2018-11-23T16:28:09.450Z,11.17
2018-11-23T16:30:57.616Z,14.00
2018-11-23T16:34:05.575Z,10.90
2018-11-23T16:37:13.300Z,14.23
2018-11-23T16:40:21.307Z,12.03
2018-11-23T16:43:10.276Z,10.73
2018-11-23T16:45:58.274Z,11.90
2018-11-23T16:52:10.559Z,13.53
2018-11-23T16:54:59.078Z,14.13
2018-11-23T17:01:12.253Z,11.77
2018-11-23T17:14:41.790Z,13.70
2018-11-23T17:17:31.650Z,13.20
2018-11-23T17:20:21.795Z,12.60
2018-11-23T17:23:11.883Z,15.53
2018-11-23T17:26:02.244Z,12.97
2018-11-23T17:28:50.782Z,15.80
2018-11-23T17:31:39.704Z,12.40
2018-11-23T17:34:28.514Z,13.00
2018-11-23T17:40:16.419Z,11.20
2018-11-23T17:43:05.235Z,13.97
2018-11-23T17:45:35.386Z,12.10
2018-11-23T17:48:24.296Z,13.03
2018-11-23T17:51:13.448Z,13.23
2018-11-23T17:54:02.264Z,14.57
2018-11-23T17:56:51.533Z,15.60
2018-11-23T17:59:59.032Z,15.20
2018-11-23T18:02:48.892Z,14.97
2018-11-23T18:05:38.164Z,14.20
2018-11-23T18:08:27.306Z,14.50
2018-11-23T18:11:16.157Z,15.50
2018-11-23T18:14:06.362Z,15.37
2018-11-23T18:16:55.643Z,15.50
2018-11-23T18:20:03.412Z,14.20
2018-11-23T18:22:53.254Z,13.60
2018-11-23T18:25:43.777Z,16.83
2018-11-23T18:28:51.766Z,14.23
2018-11-23T18:31:40.932Z,15.50
2018-11-23T18:34:30.072Z,16.70
2018-11-23T18:37:19.930Z,18.97
2018-11-23T18:40:09.516Z,20.33
2018-11-23T18:42:58.285Z,20.47
2018-11-23T18:49:02.927Z,20.70
2018-11-23T19:00:23.427Z,16.67
2018-11-23T19:03:12.261Z,18.57
2018-11-23T19:06:08.651Z,17.60
2018-11-23T19:08:58.485Z,19.90
2018-11-23T19:11:47.377Z,20.33
2018-11-23T19:14:37.228Z,21.10
2018-11-23T19:17:26.188Z,18.50
2018-11-23T19:20:18.225Z,20.20
2018-11-23T19:23:08.179Z,18.87
2018-11-23T19:25:57.103Z,19.70
2018-11-23T19:28:46.354Z,19.40
2018-11-23T19:31:37.294Z,24.20
2018-11-23T19:34:27.001Z,22.40
2018-11-23T19:37:15.970Z,19.67
2018-11-23T19:39:46.251Z,21.13
2018-11-23T19:42:35.059Z,21.53
2018-11-23T19:45:24.141Z,20.40
2018-11-23T19:48:13.283Z,23.30
2018-11-23T19:51:21.375Z,23.33
2018-11-23T19:54:10.209Z,21.80
2018-11-23T19:56:59.260Z,36.37
2018-11-23T19:59:48.217Z,26.63
2018-11-23T20:02:38.140Z,25.00
2018-11-23T20:05:26.900Z,77.20
2018-11-23T20:08:16.750Z,25.27
2018-11-23T20:11:05.635Z,23.80
2018-11-23T20:13:54.460Z,24.10
2018-11-23T20:16:43.330Z,24.60
2018-11-23T20:19:33.118Z,45.63
2018-11-23T20:22:22.851Z,23.80
2018-11-23T20:25:12.774Z,49.40
2018-11-23T20:28:01.771Z,25.77
2018-11-23T20:33:50.422Z,27.07
2018-11-23T20:36:40.713Z,25.47
2018-11-23T20:39:29.517Z,28.33
2018-11-23T20:42:18.340Z,32.17
2018-11-23T20:45:10.361Z,30.43
2018-11-23T20:47:59.485Z,25.87
2018-11-23T20:50:49.444Z,24.60
2018-11-23T20:53:38.313Z,28.37
2018-11-23T20:56:27.202Z,24.70
2018-11-23T20:59:16.069Z,33.70
2018-11-23T21:02:04.933Z,27.73
2018-11-23T21:04:53.766Z,31.60
2018-11-23T21:07:24.278Z,38.60
2018-11-23T21:10:32.042Z,32.63
2018-11-23T21:13:20.957Z,29.50
2018-11-23T21:16:09.707Z,30.37
2018-11-23T21:27:07.218Z,33.53
2018-11-23T21:29:57.062Z,30.60
2018-11-23T21:32:46.396Z,30.33
2018-11-23T21:35:35.205Z,33.67
2018-11-23T21:38:24.108Z,31.80
2018-11-23T21:41:12.963Z,33.57
2018-11-23T21:44:01.874Z,28.17
2018-11-23T21:46:51.153Z,27.37
2018-11-23T21:49:40.067Z,32.13
2018-11-23T21:52:28.957Z,27.90
2018-11-23T21:55:21.390Z,30.70
2018-11-23T21:58:11.997Z,28.80
2018-11-23T22:01:00.806Z,27.40
2018-11-23T22:07:03.217Z,31.23
2018-11-23T22:09:52.051Z,26.10
2018-11-23T22:12:41.359Z,33.70
2018-11-23T22:15:31.175Z,25.20
2018-11-23T22:18:20.489Z,26.57
2018-11-23T22:21:10.221Z,24.97
2018-11-23T22:23:40.714Z,28.90
2018-11-23T22:30:33.890Z,25.77
2018-11-23T22:33:22.999Z,30.07
2018-11-23T22:36:11.885Z,26.77
2018-11-23T22:39:01.359Z,28.60
2018-11-23T22:41:50.257Z,24.50
2018-11-23T22:44:39.060Z,23.70
2018-11-23T22:47:28.399Z,24.87
2018-11-23T22:50:19.122Z,30.10
2018-11-23T22:53:08.001Z,23.63
2018-11-23T22:55:39.148Z,23.40
2018-11-23T22:58:28.031Z,25.73
2018-11-23T23:01:16.862Z,30.20
2018-11-23T23:04:05.930Z,26.20
2018-11-23T23:07:13.757Z,27.10
2018-11-23T23:10:02.969Z,26.17
2018-11-23T23:12:52.294Z,27.93
2018-11-23T23:15:41.348Z,25.13
2018-11-23T23:18:30.154Z,26.10
2018-11-23T23:21:19.009Z,26.53
2018-11-23T23:24:11.892Z,23.47
2018-11-23T23:26:58.146Z,23.70
2018-11-23T23:29:47.865Z,25.17
2018-11-23T23:32:37.712Z,23.97
2018-11-23T23:35:27.532Z,24.67
2018-11-23T23:38:16.456Z,28.70
2018-11-23T23:41:06.317Z,25.10
2018-11-23T23:43:55.276Z,25.77
2018-11-23T23:46:44.099Z,22.97
2018-11-23T23:49:33.423Z,28.17
2018-11-23T23:52:22.891Z,23.90
2018-11-23T23:55:11.842Z,23.60
2018-11-23T23:58:00.769Z,28.73
